sensor_id;sensor_type;location;lat;lon;timestamp;temperature;humidity
6164;DHT22;3114;48.362;10.994;2023-05-02T00:01:28;10.70;99.90
6164;DHT22;3114;48.362;10.994;2023-05-02T00:03:56;10.70;99.90
6164;DHT22;3114;48.362;10.994;2023-05-02T00:06:23;10.70;99.90
6164;DHT22;3114;48.362;10.994;2023-05-02T00:08:51;10.70;99.90
6164;DHT22;3114;48.362;10.994;2023-05-02T00:11:18;10.70;99.90
6164;DHT22;3114;48.362;10.994;2023-05-02T00:13:45;10.70;99.90
6164;DHT22;3114;48.362;10.994;2023-05-02T00:16:13;10.60;99.90
6164;DHT22;3114;48.362;10.994;2023-05-02T00:18:39;10.60;99.90
6164;DHT22;3114;48.362;10.994;2023-05-02T00:21:06;10.60;99.90
6164;DHT22;3114;48.362;10.994;2023-05-02T00:23:33;10.50;99.90
6164;DHT22;3114;48.362;10.994;2023-05-02T00:26:01;10.40;99.90
6164;DHT22;3114;48.362;10.994;2023-05-02T00:28:28;10.50;99.90
6164;DHT22;3114;48.362;10.994;2023-05-02T00:30:55;10.60;99.90
6164;DHT22;3114;48.362;10.994;2023-05-02T00:33:23;10.40;99.90
6164;DHT22;3114;48.362;10.994;2023-05-02T00:35:50;10.50;99.90
6164;DHT22;3114;48.362;10.994;2023-05-02T00:38:17;10.40;99.90
6164;DHT22;3114;48.362;10.994;2023-05-02T00:40:45;10.30;99.90
6164;DHT22;3114;48.362;10.994;2023-05-02T00:43:14;10.30;99.90
6164;DHT22;3114;48.362;10.994;2023-05-02T00:45:42;10.30;99.90
6164;DHT22;3114;48.362;10.994;2023-05-02T00:48:10;10.20;99.90
6164;DHT22;3114;48.362;10.994;2023-05-02T00:50:39;10.20;99.90
6164;DHT22;3114;48.362;10.994;2023-05-02T00:53:06;10.10;99.90
6164;DHT22;3114;48.362;10.994;2023-05-02T00:55:33;10.10;99.90
6164;DHT22;3114;48.362;10.994;2023-05-02T00:58:02;10.20;99.90
6164;DHT22;3114;48.362;10.994;2023-05-02T01:00:45;10.00;99.90
6164;DHT22;3114;48.362;10.994;2023-05-02T01:03:35;9.80;99.90
6164;DHT22;3114;48.362;10.994;2023-05-02T01:06:10;10.00;99.90
6164;DHT22;3114;48.362;10.994;2023-05-02T01:08:50;9.90;99.90
6164;DHT22;3114;48.362;10.994;2023-05-02T01:11:27;9.90;99.90
6164;DHT22;3114;48.362;10.994;2023-05-02T01:13:58;9.70;99.90
6164;DHT22;3114;48.362;10.994;2023-05-02T01:16:29;9.80;99.90
6164;DHT22;3114;48.362;10.994;2023-05-02T01:19:01;9.90;99.90
6164;DHT22;3114;48.362;10.994;2023-05-02T01:21:32;10.40;99.90
6164;DHT22;3114;48.362;10.994;2023-05-02T01:24:04;9.80;99.90
6164;DHT22;3114;48.362;10.994;2023-05-02T01:26:35;9.80;99.90
6164;DHT22;3114;48.362;10.994;2023-05-02T01:29:08;9.90;99.90
6164;DHT22;3114;48.362;10.994;2023-05-02T01:31:38;9.90;99.90
6164;DHT22;3114;48.362;10.994;2023-05-02T01:34:09;9.80;99.90
6164;DHT22;3114;48.362;10.994;2023-05-02T01:36:40;9.80;99.90
6164;DHT22;3114;48.362;10.994;2023-05-02T01:39:09;9.80;99.90
6164;DHT22;3114;48.362;10.994;2023-05-02T01:41:37;9.80;99.90
6164;DHT22;3114;48.362;10.994;2023-05-02T01:44:06;9.80;99.90
6164;DHT22;3114;48.362;10.994;2023-05-02T01:46:37;9.80;99.90
6164;DHT22;3114;48.362;10.994;2023-05-02T01:49:06;9.90;99.90
6164;DHT22;3114;48.362;10.994;2023-05-02T01:51:35;9.70;99.90
6164;DHT22;3114;48.362;10.994;2023-05-02T01:54:05;9.80;99.90
6164;DHT22;3114;48.362;10.994;2023-05-02T01:56:37;9.70;99.90
6164;DHT22;3114;48.362;10.994;2023-05-02T01:59:08;9.60;99.90
6164;DHT22;3114;48.362;10.994;2023-05-02T02:01:38;9.60;99.90
6164;DHT22;3114;48.362;10.994;2023-05-02T02:04:07;9.70;99.90
6164;DHT22;3114;48.362;10.994;2023-05-02T02:06:34;9.70;99.90
6164;DHT22;3114;48.362;10.994;2023-05-02T02:09:02;9.70;99.90
6164;DHT22;3114;48.362;10.994;2023-05-02T02:11:35;9.70;99.90
6164;DHT22;3114;48.362;10.994;2023-05-02T02:14:08;9.70;99.90
6164;DHT22;3114;48.362;10.994;2023-05-02T02:16:38;9.70;99.90
6164;DHT22;3114;48.362;10.994;2023-05-02T02:19:09;9.70;99.90
6164;DHT22;3114;48.362;10.994;2023-05-02T02:21:39;9.60;99.90
6164;DHT22;3114;48.362;10.994;2023-05-02T02:24:08;9.70;99.90
6164;DHT22;3114;48.362;10.994;2023-05-02T02:26:35;9.70;99.90
6164;DHT22;3114;48.362;10.994;2023-05-02T02:29:03;9.60;99.90
6164;DHT22;3114;48.362;10.994;2023-05-02T02:31:32;9.60;99.90
6164;DHT22;3114;48.362;10.994;2023-05-02T02:34:00;9.60;99.90
6164;DHT22;3114;48.362;10.994;2023-05-02T02:36:32;9.80;99.90
6164;DHT22;3114;48.362;10.994;2023-05-02T02:39:11;9.70;99.90
6164;DHT22;3114;48.362;10.994;2023-05-02T02:41:45;9.70;99.90
6164;DHT22;3114;48.362;10.994;2023-05-02T02:44:25;9.70;99.90
6164;DHT22;3114;48.362;10.994;2023-05-02T02:47:00;9.80;99.90
6164;DHT22;3114;48.362;10.994;2023-05-02T02:49:34;9.70;99.90
6164;DHT22;3114;48.362;10.994;2023-05-02T02:52:08;9.70;99.90
6164;DHT22;3114;48.362;10.994;2023-05-02T02:54:44;9.80;99.90
6164;DHT22;3114;48.362;10.994;2023-05-02T02:57:16;9.80;99.90
6164;DHT22;3114;48.362;10.994;2023-05-02T02:59:50;9.80;99.90
6164;DHT22;3114;48.362;10.994;2023-05-02T03:02:26;9.80;99.90
6164;DHT22;3114;48.362;10.994;2023-05-02T03:04:55;9.80;99.90
6164;DHT22;3114;48.362;10.994;2023-05-02T03:07:23;9.80;99.90
6164;DHT22;3114;48.362;10.994;2023-05-02T03:09:50;9.80;99.90
6164;DHT22;3114;48.362;10.994;2023-05-02T03:12:16;9.70;99.90
6164;DHT22;3114;48.362;10.994;2023-05-02T03:14:43;9.60;99.90
6164;DHT22;3114;48.362;10.994;2023-05-02T03:17:10;9.70;99.90
6164;DHT22;3114;48.362;10.994;2023-05-02T03:19:39;9.60;99.90
6164;DHT22;3114;48.362;10.994;2023-05-02T03:22:05;9.70;99.90
6164;DHT22;3114;48.362;10.994;2023-05-02T03:24:32;9.70;99.90
6164;DHT22;3114;48.362;10.994;2023-05-02T03:26:59;9.80;99.90
6164;DHT22;3114;48.362;10.994;2023-05-02T03:29:26;9.70;99.90
6164;DHT22;3114;48.362;10.994;2023-05-02T03:31:53;9.60;99.90
6164;DHT22;3114;48.362;10.994;2023-05-02T03:34:20;9.70;99.90
6164;DHT22;3114;48.362;10.994;2023-05-02T03:36:48;9.70;99.90
6164;DHT22;3114;48.362;10.994;2023-05-02T03:39:15;9.60;99.90
6164;DHT22;3114;48.362;10.994;2023-05-02T03:41:42;9.60;99.90
6164;DHT22;3114;48.362;10.994;2023-05-02T03:44:09;9.70;99.90
6164;DHT22;3114;48.362;10.994;2023-05-02T03:46:36;9.80;99.90
6164;DHT22;3114;48.362;10.994;2023-05-02T03:49:03;9.70;99.90
6164;DHT22;3114;48.362;10.994;2023-05-02T03:51:30;9.60;99.90
6164;DHT22;3114;48.362;10.994;2023-05-02T03:54:00;9.70;99.90
6164;DHT22;3114;48.362;10.994;2023-05-02T03:56:28;9.70;99.90
6164;DHT22;3114;48.362;10.994;2023-05-02T03:58:54;9.70;99.90
6164;DHT22;3114;48.362;10.994;2023-05-02T04:01:22;9.70;99.90
6164;DHT22;3114;48.362;10.994;2023-05-02T04:03:51;9.70;99.90
6164;DHT22;3114;48.362;10.994;2023-05-02T04:06:18;9.90;99.90
6164;DHT22;3114;48.362;10.994;2023-05-02T04:08:45;9.90;99.90
6164;DHT22;3114;48.362;10.994;2023-05-02T04:11:13;10.00;99.90
6164;DHT22;3114;48.362;10.994;2023-05-02T04:13:40;10.00;99.90
6164;DHT22;3114;48.362;10.994;2023-05-02T04:16:08;9.80;99.90
6164;DHT22;3114;48.362;10.994;2023-05-02T04:18:35;9.60;99.90
6164;DHT22;3114;48.362;10.994;2023-05-02T04:21:06;9.60;99.90
6164;DHT22;3114;48.362;10.994;2023-05-02T04:23:33;9.60;99.90
6164;DHT22;3114;48.362;10.994;2023-05-02T04:26:00;9.60;99.90
6164;DHT22;3114;48.362;10.994;2023-05-02T04:28:29;9.70;99.90
6164;DHT22;3114;48.362;10.994;2023-05-02T04:30:59;9.60;99.90
6164;DHT22;3114;48.362;10.994;2023-05-02T04:33:26;9.60;99.90
6164;DHT22;3114;48.362;10.994;2023-05-02T04:35:53;9.70;99.90
6164;DHT22;3114;48.362;10.994;2023-05-02T04:38:20;9.70;99.90
6164;DHT22;3114;48.362;10.994;2023-05-02T04:40:49;9.70;99.90
6164;DHT22;3114;48.362;10.994;2023-05-02T04:43:16;9.80;99.90
6164;DHT22;3114;48.362;10.994;2023-05-02T04:45:44;9.70;99.90
6164;DHT22;3114;48.362;10.994;2023-05-02T04:48:11;9.70;99.90
6164;DHT22;3114;48.362;10.994;2023-05-02T04:50:40;9.70;99.90
6164;DHT22;3114;48.362;10.994;2023-05-02T04:53:07;9.70;99.90
6164;DHT22;3114;48.362;10.994;2023-05-02T04:55:34;9.80;99.90
6164;DHT22;3114;48.362;10.994;2023-05-02T04:58:01;9.80;99.90
6164;DHT22;3114;48.362;10.994;2023-05-02T05:00:29;9.80;99.90
6164;DHT22;3114;48.362;10.994;2023-05-02T05:02:57;9.80;99.90
6164;DHT22;3114;48.362;10.994;2023-05-02T05:05:24;9.60;99.90
6164;DHT22;3114;48.362;10.994;2023-05-02T05:07:51;9.80;99.90
6164;DHT22;3114;48.362;10.994;2023-05-02T05:10:18;9.80;99.90
6164;DHT22;3114;48.362;10.994;2023-05-02T05:12:45;9.70;99.90
6164;DHT22;3114;48.362;10.994;2023-05-02T05:15:13;9.80;99.90
6164;DHT22;3114;48.362;10.994;2023-05-02T05:17:41;9.80;99.90
6164;DHT22;3114;48.362;10.994;2023-05-02T05:20:09;9.90;99.90
6164;DHT22;3114;48.362;10.994;2023-05-02T05:22:39;9.80;99.90
6164;DHT22;3114;48.362;10.994;2023-05-02T05:25:10;9.80;99.90
6164;DHT22;3114;48.362;10.994;2023-05-02T05:27:37;9.80;99.90
6164;DHT22;3114;48.362;10.994;2023-05-02T05:30:05;9.80;99.90
6164;DHT22;3114;48.362;10.994;2023-05-02T05:32:33;9.80;99.90
6164;DHT22;3114;48.362;10.994;2023-05-02T05:35:00;9.80;99.90
6164;DHT22;3114;48.362;10.994;2023-05-02T05:37:28;9.90;99.90
6164;DHT22;3114;48.362;10.994;2023-05-02T05:39:55;10.10;99.90
6164;DHT22;3114;48.362;10.994;2023-05-02T05:42:22;10.10;99.90
6164;DHT22;3114;48.362;10.994;2023-05-02T05:44:48;10.20;99.90
6164;DHT22;3114;48.362;10.994;2023-05-02T05:47:18;10.30;99.90
6164;DHT22;3114;48.362;10.994;2023-05-02T05:49:46;10.50;99.90
6164;DHT22;3114;48.362;10.994;2023-05-02T05:52:13;10.60;99.90
6164;DHT22;3114;48.362;10.994;2023-05-02T05:54:41;10.80;99.90
6164;DHT22;3114;48.362;10.994;2023-05-02T05:57:08;10.70;99.90
6164;DHT22;3114;48.362;10.994;2023-05-02T05:59:35;10.90;99.90
6164;DHT22;3114;48.362;10.994;2023-05-02T06:02:02;10.80;99.90
6164;DHT22;3114;48.362;10.994;2023-05-02T06:04:29;10.80;99.90
6164;DHT22;3114;48.362;10.994;2023-05-02T06:06:56;10.80;99.90
6164;DHT22;3114;48.362;10.994;2023-05-02T06:09:23;10.90;99.90
6164;DHT22;3114;48.362;10.994;2023-05-02T06:11:51;10.90;99.90
6164;DHT22;3114;48.362;10.994;2023-05-02T06:14:18;11.00;99.90
6164;DHT22;3114;48.362;10.994;2023-05-02T06:16:45;11.00;99.90
6164;DHT22;3114;48.362;10.994;2023-05-02T06:19:12;11.00;99.90
6164;DHT22;3114;48.362;10.994;2023-05-02T06:21:39;10.90;99.90
6164;DHT22;3114;48.362;10.994;2023-05-02T06:24:06;11.00;99.90
6164;DHT22;3114;48.362;10.994;2023-05-02T06:26:33;10.90;99.90
6164;DHT22;3114;48.362;10.994;2023-05-02T06:29:01;11.10;99.90
6164;DHT22;3114;48.362;10.994;2023-05-02T06:31:28;10.90;99.90
6164;DHT22;3114;48.362;10.994;2023-05-02T06:33:55;10.80;99.90
6164;DHT22;3114;48.362;10.994;2023-05-02T06:36:21;10.80;99.90
6164;DHT22;3114;48.362;10.994;2023-05-02T06:38:48;10.80;99.90
6164;DHT22;3114;48.362;10.994;2023-05-02T06:41:15;10.80;99.90
6164;DHT22;3114;48.362;10.994;2023-05-02T06:43:42;10.80;99.90
6164;DHT22;3114;48.362;10.994;2023-05-02T06:46:10;10.70;99.90
6164;DHT22;3114;48.362;10.994;2023-05-02T06:48:37;10.70;99.90
6164;DHT22;3114;48.362;10.994;2023-05-02T06:51:04;10.70;99.90
6164;DHT22;3114;48.362;10.994;2023-05-02T06:53:31;10.70;99.90
6164;DHT22;3114;48.362;10.994;2023-05-02T06:55:59;10.80;99.90
6164;DHT22;3114;48.362;10.994;2023-05-02T06:58:26;10.90;99.90
6164;DHT22;3114;48.362;10.994;2023-05-02T07:00:53;10.90;99.90
6164;DHT22;3114;48.362;10.994;2023-05-02T07:03:21;11.10;99.90
6164;DHT22;3114;48.362;10.994;2023-05-02T07:05:48;11.00;99.90
6164;DHT22;3114;48.362;10.994;2023-05-02T07:08:15;11.00;99.90
6164;DHT22;3114;48.362;10.994;2023-05-02T07:10:43;11.00;99.90
6164;DHT22;3114;48.362;10.994;2023-05-02T07:13:09;11.10;99.90
6164;DHT22;3114;48.362;10.994;2023-05-02T07:15:36;11.30;99.90
6164;DHT22;3114;48.362;10.994;2023-05-02T07:18:03;11.20;99.90
6164;DHT22;3114;48.362;10.994;2023-05-02T07:20:33;11.20;99.90
6164;DHT22;3114;48.362;10.994;2023-05-02T07:23:00;11.20;99.90
6164;DHT22;3114;48.362;10.994;2023-05-02T07:25:27;11.30;99.90
6164;DHT22;3114;48.362;10.994;2023-05-02T07:27:53;11.40;99.90
6164;DHT22;3114;48.362;10.994;2023-05-02T07:30:21;11.40;99.90
6164;DHT22;3114;48.362;10.994;2023-05-02T07:32:47;11.40;99.90
6164;DHT22;3114;48.362;10.994;2023-05-02T07:35:14;11.50;99.90
6164;DHT22;3114;48.362;10.994;2023-05-02T07:37:43;11.50;99.90
6164;DHT22;3114;48.362;10.994;2023-05-02T07:40:10;11.50;99.90
6164;DHT22;3114;48.362;10.994;2023-05-02T07:42:37;11.60;99.90
6164;DHT22;3114;48.362;10.994;2023-05-02T07:45:06;11.60;99.90
6164;DHT22;3114;48.362;10.994;2023-05-02T07:47:33;11.80;99.90
6164;DHT22;3114;48.362;10.994;2023-05-02T07:50:01;11.90;99.90
6164;DHT22;3114;48.362;10.994;2023-05-02T07:52:28;11.90;99.90
6164;DHT22;3114;48.362;10.994;2023-05-02T07:54:56;11.50;99.90
6164;DHT22;3114;48.362;10.994;2023-05-02T07:57:23;11.60;99.90
6164;DHT22;3114;48.362;10.994;2023-05-02T07:59:50;11.90;99.90
6164;DHT22;3114;48.362;10.994;2023-05-02T08:02:17;11.90;99.90
6164;DHT22;3114;48.362;10.994;2023-05-02T08:04:45;11.90;99.90
6164;DHT22;3114;48.362;10.994;2023-05-02T08:07:12;11.80;99.90
6164;DHT22;3114;48.362;10.994;2023-05-02T08:09:39;11.90;99.90
6164;DHT22;3114;48.362;10.994;2023-05-02T08:12:07;12.00;99.90
6164;DHT22;3114;48.362;10.994;2023-05-02T08:14:34;12.20;99.90
6164;DHT22;3114;48.362;10.994;2023-05-02T08:17:01;12.30;99.90
6164;DHT22;3114;48.362;10.994;2023-05-02T08:19:27;12.40;99.90
6164;DHT22;3114;48.362;10.994;2023-05-02T08:21:54;12.60;99.90
6164;DHT22;3114;48.362;10.994;2023-05-02T08:24:21;12.70;99.90
6164;DHT22;3114;48.362;10.994;2023-05-02T08:26:48;12.40;99.90
6164;DHT22;3114;48.362;10.994;2023-05-02T08:29:16;12.50;99.90
6164;DHT22;3114;48.362;10.994;2023-05-02T08:31:43;12.60;99.90
6164;DHT22;3114;48.362;10.994;2023-05-02T08:34:10;12.60;99.90
6164;DHT22;3114;48.362;10.994;2023-05-02T08:36:37;12.40;99.90
6164;DHT22;3114;48.362;10.994;2023-05-02T08:39:04;12.80;99.90
6164;DHT22;3114;48.362;10.994;2023-05-02T08:41:32;12.80;99.90
6164;DHT22;3114;48.362;10.994;2023-05-02T08:44:00;13.10;99.90
6164;DHT22;3114;48.362;10.994;2023-05-02T08:46:30;13.00;99.90
6164;DHT22;3114;48.362;10.994;2023-05-02T08:48:58;12.80;99.90
6164;DHT22;3114;48.362;10.994;2023-05-02T08:51:26;12.70;99.90
6164;DHT22;3114;48.362;10.994;2023-05-02T08:53:54;13.00;99.90
6164;DHT22;3114;48.362;10.994;2023-05-02T08:56:21;13.30;99.90
6164;DHT22;3114;48.362;10.994;2023-05-02T08:58:49;13.50;99.90
6164;DHT22;3114;48.362;10.994;2023-05-02T09:01:18;13.60;99.90
6164;DHT22;3114;48.362;10.994;2023-05-02T09:03:47;13.70;99.90
6164;DHT22;3114;48.362;10.994;2023-05-02T09:06:15;13.90;99.90
6164;DHT22;3114;48.362;10.994;2023-05-02T09:08:44;14.10;99.90
6164;DHT22;3114;48.362;10.994;2023-05-02T09:11:14;14.20;99.90
6164;DHT22;3114;48.362;10.994;2023-05-02T09:13:42;14.20;99.90
6164;DHT22;3114;48.362;10.994;2023-05-02T09:16:11;14.00;99.90
6164;DHT22;3114;48.362;10.994;2023-05-02T09:18:39;14.10;99.90
6164;DHT22;3114;48.362;10.994;2023-05-02T09:21:09;14.30;99.90
6164;DHT22;3114;48.362;10.994;2023-05-02T09:23:39;14.40;99.90
6164;DHT22;3114;48.362;10.994;2023-05-02T09:26:14;14.60;99.90
6164;DHT22;3114;48.362;10.994;2023-05-02T09:28:43;14.60;99.90
6164;DHT22;3114;48.362;10.994;2023-05-02T09:31:11;14.50;99.90
6164;DHT22;3114;48.362;10.994;2023-05-02T09:33:39;14.60;99.90
6164;DHT22;3114;48.362;10.994;2023-05-02T09:36:09;14.70;99.90
6164;DHT22;3114;48.362;10.994;2023-05-02T09:38:37;14.80;99.90
6164;DHT22;3114;48.362;10.994;2023-05-02T09:41:04;15.10;99.90
6164;DHT22;3114;48.362;10.994;2023-05-02T09:43:31;15.20;99.90
6164;DHT22;3114;48.362;10.994;2023-05-02T09:46:02;15.00;99.90
6164;DHT22;3114;48.362;10.994;2023-05-02T09:48:31;15.00;99.90
6164;DHT22;3114;48.362;10.994;2023-05-02T09:50:58;15.10;99.90
6164;DHT22;3114;48.362;10.994;2023-05-02T09:53:27;15.10;99.90
6164;DHT22;3114;48.362;10.994;2023-05-02T09:56:01;15.00;99.90
6164;DHT22;3114;48.362;10.994;2023-05-02T09:58:29;15.00;99.90
6164;DHT22;3114;48.362;10.994;2023-05-02T10:00:57;14.90;99.90
6164;DHT22;3114;48.362;10.994;2023-05-02T10:03:28;15.10;99.90
6164;DHT22;3114;48.362;10.994;2023-05-02T10:05:57;15.10;99.90
6164;DHT22;3114;48.362;10.994;2023-05-02T10:08:25;14.70;99.90
6164;DHT22;3114;48.362;10.994;2023-05-02T10:10:55;14.80;99.90
6164;DHT22;3114;48.362;10.994;2023-05-02T10:13:23;15.10;99.90
6164;DHT22;3114;48.362;10.994;2023-05-02T10:15:59;15.30;99.90
6164;DHT22;3114;48.362;10.994;2023-05-02T10:18:28;15.10;99.90
6164;DHT22;3114;48.362;10.994;2023-05-02T10:20:56;15.20;99.90
6164;DHT22;3114;48.362;10.994;2023-05-02T10:23:28;15.40;99.90
6164;DHT22;3114;48.362;10.994;2023-05-02T10:25:57;15.70;99.90
6164;DHT22;3114;48.362;10.994;2023-05-02T10:28:25;15.90;99.90
6164;DHT22;3114;48.362;10.994;2023-05-02T10:30:53;15.70;99.90
6164;DHT22;3114;48.362;10.994;2023-05-02T10:33:20;15.30;99.90
6164;DHT22;3114;48.362;10.994;2023-05-02T10:35:48;15.00;99.90
6164;DHT22;3114;48.362;10.994;2023-05-02T10:38:16;15.10;99.90
6164;DHT22;3114;48.362;10.994;2023-05-02T10:40:53;15.60;99.90
6164;DHT22;3114;48.362;10.994;2023-05-02T10:43:25;15.90;99.90
6164;DHT22;3114;48.362;10.994;2023-05-02T10:45:53;16.10;99.90
6164;DHT22;3114;48.362;10.994;2023-05-02T10:48:21;16.20;99.90
6164;DHT22;3114;48.362;10.994;2023-05-02T10:50:50;16.30;99.90
6164;DHT22;3114;48.362;10.994;2023-05-02T10:53:26;16.30;99.90
6164;DHT22;3114;48.362;10.994;2023-05-02T10:56:13;16.50;99.90
6164;DHT22;3114;48.362;10.994;2023-05-02T10:58:43;16.80;99.90
6164;DHT22;3114;48.362;10.994;2023-05-02T11:01:35;16.90;99.90
6164;DHT22;3114;48.362;10.994;2023-05-02T11:04:08;17.00;99.90
6164;DHT22;3114;48.362;10.994;2023-05-02T11:06:37;17.00;99.90
6164;DHT22;3114;48.362;10.994;2023-05-02T11:09:31;16.80;99.90
6164;DHT22;3114;48.362;10.994;2023-05-02T11:12:01;16.60;99.90
6164;DHT22;3114;48.362;10.994;2023-05-02T11:14:46;17.00;99.90
6164;DHT22;3114;48.362;10.994;2023-05-02T11:17:15;17.50;99.90
6164;DHT22;3114;48.362;10.994;2023-05-02T11:22:45;17.80;99.90
6164;DHT22;3114;48.362;10.994;2023-05-02T11:25:31;17.40;99.90
6164;DHT22;3114;48.362;10.994;2023-05-02T11:27:58;17.50;99.90
6164;DHT22;3114;48.362;10.994;2023-05-02T11:30:41;17.70;99.90
6164;DHT22;3114;48.362;10.994;2023-05-02T11:33:15;18.00;99.90
6164;DHT22;3114;48.362;10.994;2023-05-02T11:35:45;18.90;99.90
6164;DHT22;3114;48.362;10.994;2023-05-02T11:38:15;19.60;99.90
6164;DHT22;3114;48.362;10.994;2023-05-02T11:40:50;19.70;99.90
6164;DHT22;3114;48.362;10.994;2023-05-02T11:43:17;19.70;99.90
6164;DHT22;3114;48.362;10.994;2023-05-02T11:45:47;19.90;99.90
6164;DHT22;3114;48.362;10.994;2023-05-02T11:48:19;20.10;99.90
6164;DHT22;3114;48.362;10.994;2023-05-02T11:50:48;20.70;99.90
6164;DHT22;3114;48.362;10.994;2023-05-02T11:53:17;21.30;99.90
6164;DHT22;3114;48.362;10.994;2023-05-02T11:55:46;21.80;99.90
6164;DHT22;3114;48.362;10.994;2023-05-02T11:58:14;22.10;99.90
6164;DHT22;3114;48.362;10.994;2023-05-02T12:00:42;22.10;99.90
6164;DHT22;3114;48.362;10.994;2023-05-02T12:03:25;22.20;99.90
6164;DHT22;3114;48.362;10.994;2023-05-02T12:05:53;22.40;99.90
6164;DHT22;3114;48.362;10.994;2023-05-02T12:08:21;22.00;99.90
6164;DHT22;3114;48.362;10.994;2023-05-02T12:10:49;20.90;99.90
6164;DHT22;3114;48.362;10.994;2023-05-02T12:13:21;21.90;99.90
6164;DHT22;3114;48.362;10.994;2023-05-02T12:15:49;23.30;99.90
6164;DHT22;3114;48.362;10.994;2023-05-02T12:18:17;23.50;99.90
6164;DHT22;3114;48.362;10.994;2023-05-02T12:20:46;24.40;99.90
6164;DHT22;3114;48.362;10.994;2023-05-02T12:23:13;24.70;99.90
6164;DHT22;3114;48.362;10.994;2023-05-02T12:25:40;25.90;99.90
6164;DHT22;3114;48.362;10.994;2023-05-02T12:28:08;27.20;99.90
6164;DHT22;3114;48.362;10.994;2023-05-02T12:30:36;27.70;99.90
6164;DHT22;3114;48.362;10.994;2023-05-02T12:33:05;28.60;99.90
6164;DHT22;3114;48.362;10.994;2023-05-02T12:35:33;28.00;99.90
6164;DHT22;3114;48.362;10.994;2023-05-02T12:38:13;29.70;99.90
6164;DHT22;3114;48.362;10.994;2023-05-02T12:40:49;32.20;99.90
6164;DHT22;3114;48.362;10.994;2023-05-02T12:43:16;33.30;99.90
6164;DHT22;3114;48.362;10.994;2023-05-02T12:45:43;31.60;99.90
6164;DHT22;3114;48.362;10.994;2023-05-02T12:48:19;32.90;99.90
6164;DHT22;3114;48.362;10.994;2023-05-02T12:50:47;31.50;99.90
6164;DHT22;3114;48.362;10.994;2023-05-02T12:53:15;32.60;99.90
6164;DHT22;3114;48.362;10.994;2023-05-02T12:55:42;33.40;99.90
6164;DHT22;3114;48.362;10.994;2023-05-02T12:58:10;34.00;99.90
6164;DHT22;3114;48.362;10.994;2023-05-02T13:00:39;35.30;99.90
6164;DHT22;3114;48.362;10.994;2023-05-02T13:03:07;34.70;99.90
6164;DHT22;3114;48.362;10.994;2023-05-02T13:05:34;34.80;99.90
6164;DHT22;3114;48.362;10.994;2023-05-02T13:08:01;35.80;99.90
6164;DHT22;3114;48.362;10.994;2023-05-02T13:10:30;35.30;99.90
6164;DHT22;3114;48.362;10.994;2023-05-02T13:12:56;33.90;99.90
6164;DHT22;3114;48.362;10.994;2023-05-02T13:15:23;33.70;99.90
6164;DHT22;3114;48.362;10.994;2023-05-02T13:17:50;32.80;99.90
6164;DHT22;3114;48.362;10.994;2023-05-02T13:20:17;32.60;99.90
6164;DHT22;3114;48.362;10.994;2023-05-02T13:22:45;29.80;99.90
6164;DHT22;3114;48.362;10.994;2023-05-02T13:25:11;27.70;99.90
6164;DHT22;3114;48.362;10.994;2023-05-02T13:27:39;26.30;99.90
6164;DHT22;3114;48.362;10.994;2023-05-02T13:30:07;25.80;99.90
6164;DHT22;3114;48.362;10.994;2023-05-02T13:32:36;25.40;99.90
6164;DHT22;3114;48.362;10.994;2023-05-02T13:35:04;25.10;99.90
6164;DHT22;3114;48.362;10.994;2023-05-02T13:37:31;26.50;99.90
6164;DHT22;3114;48.362;10.994;2023-05-02T13:39:58;29.90;99.90
6164;DHT22;3114;48.362;10.994;2023-05-02T13:42:24;31.70;99.90
6164;DHT22;3114;48.362;10.994;2023-05-02T13:44:52;33.60;99.90
6164;DHT22;3114;48.362;10.994;2023-05-02T13:47:19;34.40;99.90
6164;DHT22;3114;48.362;10.994;2023-05-02T13:49:46;34.40;99.90
6164;DHT22;3114;48.362;10.994;2023-05-02T13:52:13;33.50;99.90
6164;DHT22;3114;48.362;10.994;2023-05-02T13:54:40;34.40;99.90
6164;DHT22;3114;48.362;10.994;2023-05-02T13:57:09;34.10;99.90
6164;DHT22;3114;48.362;10.994;2023-05-02T13:59:36;32.80;99.90
6164;DHT22;3114;48.362;10.994;2023-05-02T14:02:04;30.50;99.90
6164;DHT22;3114;48.362;10.994;2023-05-02T14:04:31;28.00;99.90
6164;DHT22;3114;48.362;10.994;2023-05-02T14:06:58;25.80;99.90
6164;DHT22;3114;48.362;10.994;2023-05-02T14:09:25;25.20;99.90
6164;DHT22;3114;48.362;10.994;2023-05-02T14:11:52;23.80;99.90
6164;DHT22;3114;48.362;10.994;2023-05-02T14:14:20;24.30;99.90
6164;DHT22;3114;48.362;10.994;2023-05-02T14:16:46;26.10;99.90
6164;DHT22;3114;48.362;10.994;2023-05-02T14:19:15;29.00;99.90
6164;DHT22;3114;48.362;10.994;2023-05-02T14:21:41;30.30;99.90
6164;DHT22;3114;48.362;10.994;2023-05-02T14:24:08;32.10;99.90
6164;DHT22;3114;48.362;10.994;2023-05-02T14:26:36;31.60;99.90
6164;DHT22;3114;48.362;10.994;2023-05-02T14:29:03;32.90;99.90
6164;DHT22;3114;48.362;10.994;2023-05-02T14:31:30;33.20;99.90
6164;DHT22;3114;48.362;10.994;2023-05-02T14:33:57;30.20;99.90
6164;DHT22;3114;48.362;10.994;2023-05-02T14:36:25;27.20;99.90
6164;DHT22;3114;48.362;10.994;2023-05-02T14:38:52;24.40;99.90
6164;DHT22;3114;48.362;10.994;2023-05-02T14:41:19;22.70;99.90
6164;DHT22;3114;48.362;10.994;2023-05-02T14:43:46;21.80;99.90
6164;DHT22;3114;48.362;10.994;2023-05-02T14:46:13;22.10;99.90
6164;DHT22;3114;48.362;10.994;2023-05-02T14:48:40;22.40;99.90
6164;DHT22;3114;48.362;10.994;2023-05-02T14:51:07;22.60;99.90
6164;DHT22;3114;48.362;10.994;2023-05-02T14:53:38;21.90;99.90
6164;DHT22;3114;48.362;10.994;2023-05-02T14:56:11;21.20;99.90
6164;DHT22;3114;48.362;10.994;2023-05-02T14:58:37;20.60;99.90
6164;DHT22;3114;48.362;10.994;2023-05-02T15:01:04;20.10;99.90
6164;DHT22;3114;48.362;10.994;2023-05-02T15:03:31;19.90;99.90
6164;DHT22;3114;48.362;10.994;2023-05-02T15:05:58;19.40;99.90
6164;DHT22;3114;48.362;10.994;2023-05-02T15:08:25;19.20;99.90
6164;DHT22;3114;48.362;10.994;2023-05-02T15:10:53;19.00;99.90
6164;DHT22;3114;48.362;10.994;2023-05-02T15:13:23;18.60;99.90
6164;DHT22;3114;48.362;10.994;2023-05-02T15:15:50;18.30;99.90
6164;DHT22;3114;48.362;10.994;2023-05-02T15:18:18;18.00;99.90
6164;DHT22;3114;48.362;10.994;2023-05-02T15:20:45;18.20;99.90
6164;DHT22;3114;48.362;10.994;2023-05-02T15:23:12;18.20;99.90
6164;DHT22;3114;48.362;10.994;2023-05-02T15:25:39;18.00;99.90
6164;DHT22;3114;48.362;10.994;2023-05-02T15:28:07;17.80;99.90
6164;DHT22;3114;48.362;10.994;2023-05-02T15:30:34;17.80;99.90
6164;DHT22;3114;48.362;10.994;2023-05-02T15:33:01;17.90;99.90
6164;DHT22;3114;48.362;10.994;2023-05-02T15:35:28;17.90;99.90
6164;DHT22;3114;48.362;10.994;2023-05-02T15:37:56;17.90;99.90
6164;DHT22;3114;48.362;10.994;2023-05-02T15:40:22;17.70;99.90
6164;DHT22;3114;48.362;10.994;2023-05-02T15:42:50;17.70;99.90
6164;DHT22;3114;48.362;10.994;2023-05-02T15:45:18;17.60;99.90
6164;DHT22;3114;48.362;10.994;2023-05-02T15:47:45;17.20;99.90
6164;DHT22;3114;48.362;10.994;2023-05-02T15:50:12;17.00;99.90
6164;DHT22;3114;48.362;10.994;2023-05-02T15:52:39;17.00;99.90
6164;DHT22;3114;48.362;10.994;2023-05-02T15:55:06;17.00;99.90
6164;DHT22;3114;48.362;10.994;2023-05-02T15:57:33;16.80;99.90
6164;DHT22;3114;48.362;10.994;2023-05-02T15:59:59;16.50;99.90
6164;DHT22;3114;48.362;10.994;2023-05-02T16:02:28;16.40;99.90